createdAt,value
2022-12-29T00:00:44.807Z,23.1
2022-12-29T00:01:47.357Z,23.1
2022-12-29T00:02:50.042Z,23.3
2022-12-29T00:03:53.358Z,23.1
2022-12-29T00:04:56.331Z,23.2
2022-12-29T00:05:58.883Z,23.2
2022-12-29T00:07:01.470Z,23.1
2022-12-29T00:08:03.724Z,23
2022-12-29T00:09:06.258Z,23.2
2022-12-29T00:10:08.843Z,23.2
2022-12-29T00:11:11.084Z,23.1
2022-12-29T00:12:13.644Z,23.2
2022-12-29T00:13:16.220Z,23.2
2022-12-29T00:14:22.846Z,23.2
2022-12-29T00:15:23.793Z,23.3
2022-12-29T00:16:25.538Z,23.3
2022-12-29T00:17:28.587Z,23.3
2022-12-29T00:18:31.109Z,23.3
2022-12-29T00:19:34.075Z,23.4
2022-12-29T00:20:36.640Z,23.2
2022-12-29T00:21:38.674Z,23.4
2022-12-29T00:22:41.186Z,23.4
2022-12-29T00:23:43.830Z,23.2
2022-12-29T00:24:46.135Z,23.3
2022-12-29T00:25:48.372Z,23.4
2022-12-29T00:26:50.914Z,23.3
2022-12-29T00:27:53.181Z,23.4
2022-12-29T00:28:55.711Z,23.3
2022-12-29T00:29:58.303Z,23.2
2022-12-29T00:31:00.582Z,23.2
2022-12-29T00:32:02.781Z,23.2
2022-12-29T00:33:05.334Z,23.3
2022-12-29T00:34:08.066Z,23.3
2022-12-29T00:35:10.586Z,23.2
2022-12-29T00:36:12.834Z,23.2
2022-12-29T00:37:16.242Z,23.4
2022-12-29T00:38:19.561Z,23.2
2022-12-29T00:39:22.146Z,23.5
2022-12-29T00:40:24.378Z,23.3
2022-12-29T00:41:26.620Z,23.4
2022-12-29T00:42:29.124Z,23.3
2022-12-29T00:43:31.739Z,23.6
2022-12-29T00:44:34.296Z,23.4
2022-12-29T00:45:36.950Z,23.5
2022-12-29T00:46:39.223Z,23.3
2022-12-29T00:47:41.695Z,23.4
2022-12-29T00:48:43.639Z,23.2
2022-12-29T00:49:45.624Z,23.5
2022-12-29T00:50:47.912Z,23.6
2022-12-29T00:51:50.424Z,23.2
2022-12-29T00:52:52.664Z,23.3
2022-12-29T00:53:55.179Z,23.4
2022-12-29T00:54:57.421Z,23.3
2022-12-29T00:55:59.659Z,23.4
2022-12-29T00:57:01.954Z,23.3
2022-12-29T00:58:03.924Z,23.4
2022-12-29T00:59:06.543Z,23.3
2022-12-29T01:00:09.704Z,23.4
2022-12-29T01:01:12.089Z,23.3
2022-12-29T01:02:15.766Z,23.4
2022-12-29T01:03:19.647Z,23.4
2022-12-29T01:04:22.578Z,23.6
2022-12-29T01:05:25.109Z,23.4
2022-12-29T01:06:27.404Z,23.3
2022-12-29T01:07:29.941Z,23.5
2022-12-29T01:08:33.611Z,23.5
2022-12-29T01:09:36.408Z,23.4
2022-12-29T01:10:38.660Z,23.6
2022-12-29T01:11:41.182Z,23.5
2022-12-29T01:12:43.689Z,23.6
2022-12-29T01:13:46.265Z,23.6
2022-12-29T01:14:48.801Z,23.5
2022-12-29T01:15:51.385Z,23.5
2022-12-29T01:16:54.259Z,23.4
2022-12-29T01:17:56.574Z,23.6
2022-12-29T01:18:59.150Z,23.5
2022-12-29T01:20:01.402Z,23.5
2022-12-29T01:21:04.015Z,23.4
2022-12-29T01:22:06.267Z,23.6
2022-12-29T01:23:09.277Z,23.4
2022-12-29T01:24:11.804Z,23.5
2022-12-29T01:25:14.640Z,23.6
2022-12-29T01:26:18.751Z,23.6
2022-12-29T01:27:21.267Z,23.4
2022-12-29T01:28:26.050Z,23.5
2022-12-29T01:29:28.782Z,23.6
2022-12-29T01:30:31.342Z,23.6
2022-12-29T01:31:34.342Z,23.7
2022-12-29T01:32:36.977Z,23.7
2022-12-29T01:33:39.526Z,23.5
2022-12-29T01:34:41.762Z,23.8
2022-12-29T01:35:44.266Z,23.5
2022-12-29T01:36:46.511Z,23.7
2022-12-29T01:37:49.086Z,23.6
2022-12-29T01:38:51.618Z,23.4
2022-12-29T01:39:53.860Z,23.5
2022-12-29T01:40:56.376Z,23.6
2022-12-29T01:41:58.932Z,23.6
2022-12-29T01:43:01.626Z,23.5
2022-12-29T01:44:04.153Z,23.5
2022-12-29T01:45:07.794Z,23.7
2022-12-29T01:46:10.369Z,23.7
2022-12-29T01:47:13.106Z,23.6
2022-12-29T01:48:16.412Z,23.4
2022-12-29T01:49:20.255Z,23.7
2022-12-29T01:50:22.765Z,23.6
2022-12-29T01:51:25.041Z,23.6
2022-12-29T01:52:27.542Z,23.7
2022-12-29T01:53:30.092Z,23.6
2022-12-29T01:54:32.599Z,23.7
2022-12-29T01:55:34.883Z,23.7
2022-12-29T01:56:37.375Z,23.6
2022-12-29T01:57:39.622Z,23.7
2022-12-29T01:58:42.155Z,23.8
2022-12-29T01:59:44.396Z,23.7
2022-12-29T02:00:46.715Z,23.6
2022-12-29T02:01:49.695Z,23.6
2022-12-29T02:02:53.113Z,23.7
2022-12-29T02:03:56.065Z,23.7
2022-12-29T02:05:02.786Z,23.6
2022-12-29T02:06:02.991Z,23.4
2022-12-29T02:07:05.206Z,23.7
2022-12-29T02:08:08.823Z,23.7
2022-12-29T02:09:11.342Z,23.6
2022-12-29T02:10:14.743Z,23.5
2022-12-29T02:11:17.655Z,23.7
2022-12-29T02:12:20.404Z,23.6
2022-12-29T02:13:22.421Z,23.4
2022-12-29T02:14:24.650Z,23.6
2022-12-29T02:15:26.914Z,23.6
2022-12-29T02:16:29.224Z,23.5
2022-12-29T02:17:32.175Z,23.7
2022-12-29T02:18:35.005Z,23.8
2022-12-29T02:19:37.595Z,23.7
2022-12-29T02:20:40.117Z,23.8
2022-12-29T02:21:42.636Z,23.7
2022-12-29T02:22:44.886Z,23.7
2022-12-29T02:23:47.383Z,23.7
2022-12-29T02:24:49.925Z,23.5
2022-12-29T02:25:52.425Z,23.9
2022-12-29T02:26:54.714Z,23.8
2022-12-29T02:27:56.745Z,23.7
2022-12-29T02:28:59.250Z,23.5
2022-12-29T02:30:01.542Z,23.7
2022-12-29T02:31:04.088Z,23.7
2022-12-29T02:32:06.662Z,23.5
2022-12-29T02:33:10.531Z,23.8
2022-12-29T02:34:13.093Z,23.7
2022-12-29T02:35:16.055Z,23.8
2022-12-29T02:36:20.369Z,23.6
2022-12-29T02:37:22.880Z,23.7
2022-12-29T02:38:25.387Z,23.6
2022-12-29T02:39:27.895Z,23.7
2022-12-29T02:40:30.420Z,23.6
2022-12-29T02:41:32.654Z,23.9
2022-12-29T02:42:35.297Z,23.8
2022-12-29T02:43:37.823Z,23.7
2022-12-29T02:44:40.055Z,23.7
2022-12-29T02:45:42.357Z,23.8
2022-12-29T02:46:45.161Z,23.7
2022-12-29T02:47:47.678Z,23.8
2022-12-29T02:48:49.957Z,23.8
2022-12-29T02:49:52.487Z,23.8
2022-12-29T02:50:55.127Z,23.7
2022-12-29T02:51:57.643Z,23.7
2022-12-29T02:52:59.924Z,23.8
2022-12-29T02:54:02.287Z,23.7
2022-12-29T02:55:04.816Z,23.7
2022-12-29T02:56:07.819Z,23.8
2022-12-29T02:57:10.344Z,23.9
2022-12-29T02:58:12.859Z,23.6
2022-12-29T02:59:16.316Z,23.7
2022-12-29T03:00:20.785Z,23.7
2022-12-29T03:01:23.505Z,23.8
2022-12-29T03:02:26.840Z,23.8
2022-12-29T03:03:30.177Z,23.8
2022-12-29T03:04:32.730Z,23.8
2022-12-29T03:05:36.465Z,23.9
2022-12-29T03:06:39.071Z,23.9
2022-12-29T03:07:41.573Z,23.7
2022-12-29T03:08:43.814Z,23.8
2022-12-29T03:09:46.362Z,23.8
2022-12-29T03:10:48.662Z,23.8
2022-12-29T03:11:51.202Z,23.8
2022-12-29T03:12:53.719Z,23.8
2022-12-29T03:13:56.261Z,23.8
2022-12-29T03:14:58.790Z,23.8
2022-12-29T03:16:01.046Z,23.7
2022-12-29T03:17:03.284Z,23.9
2022-12-29T03:18:06.150Z,23.7
2022-12-29T03:19:08.143Z,23.8
2022-12-29T03:20:10.701Z,23.8
2022-12-29T03:21:13.286Z,23.8
2022-12-29T03:22:19.254Z,23.7
2022-12-29T03:23:21.514Z,23.7
2022-12-29T03:24:24.048Z,23.7
2022-12-29T03:25:26.601Z,23.8
2022-12-29T03:26:28.877Z,23.8
2022-12-29T03:27:31.376Z,23.6
2022-12-29T03:28:33.910Z,23.8
2022-12-29T03:29:36.854Z,23.7
2022-12-29T03:30:39.459Z,23.8
2022-12-29T03:31:42.071Z,23.8
2022-12-29T03:32:44.312Z,23.8
2022-12-29T03:33:46.938Z,23.8
2022-12-29T03:34:49.473Z,23.8
2022-12-29T03:35:51.729Z,23.7
2022-12-29T03:36:54.259Z,23.8
2022-12-29T03:37:56.699Z,23.8
2022-12-29T03:38:58.937Z,23.8
2022-12-29T03:40:01.452Z,23.9
2022-12-29T03:41:03.992Z,23.9
2022-12-29T03:42:06.496Z,23.8
2022-12-29T03:43:09.978Z,23.8
2022-12-29T03:44:12.509Z,23.7
2022-12-29T03:45:15.924Z,23.7
2022-12-29T03:46:20.507Z,23.8
2022-12-29T03:47:23.078Z,23.8
2022-12-29T03:48:25.592Z,23.6
2022-12-29T03:49:28.291Z,23.7
2022-12-29T03:50:30.816Z,23.8
2022-12-29T03:51:33.396Z,23.8
2022-12-29T03:52:36.555Z,23.8
2022-12-29T03:53:39.197Z,23.7
2022-12-29T03:54:41.729Z,23.8
2022-12-29T03:55:43.983Z,23.7
2022-12-29T03:56:46.521Z,23.9
2022-12-29T03:57:48.748Z,23.8
2022-12-29T03:58:50.975Z,23.8
2022-12-29T03:59:53.548Z,23.8
2022-12-29T04:00:56.090Z,23.9
2022-12-29T04:01:58.733Z,23.7
2022-12-29T04:03:02.059Z,23.8
2022-12-29T04:04:05.015Z,23.9
2022-12-29T04:05:07.609Z,23.9
2022-12-29T04:06:10.114Z,23.8
2022-12-29T04:07:12.671Z,23.8
2022-12-29T04:08:15.274Z,23.7
2022-12-29T04:09:18.726Z,23.8
2022-12-29T04:10:20.989Z,23.7
2022-12-29T04:11:25.174Z,23.8
2022-12-29T04:12:28.306Z,23.6
2022-12-29T04:13:30.865Z,23.7
2022-12-29T04:14:33.902Z,23.7
2022-12-29T04:15:36.458Z,23.7
2022-12-29T04:16:39.266Z,23.7
2022-12-29T04:17:41.775Z,23.7
2022-12-29T04:18:44.033Z,23.7
2022-12-29T04:19:46.568Z,23.8
2022-12-29T04:20:49.111Z,23.7
2022-12-29T04:21:51.626Z,23.7
2022-12-29T04:22:54.222Z,23.6
2022-12-29T04:23:56.755Z,23.5
2022-12-29T04:24:59.382Z,23.7
2022-12-29T04:26:01.883Z,23.7
2022-12-29T04:27:04.425Z,23.5
2022-12-29T04:28:06.678Z,23.6
2022-12-29T04:29:10.355Z,23.5
2022-12-29T04:30:12.853Z,23.5
2022-12-29T04:31:20.781Z,23.4
2022-12-29T04:32:23.748Z,23.5
2022-12-29T04:33:26.273Z,23.6
2022-12-29T04:34:28.819Z,23.6
2022-12-29T04:35:31.370Z,23.7
2022-12-29T04:36:34.383Z,23.5
2022-12-29T04:37:37.156Z,23.6
2022-12-29T04:38:39.158Z,23.6
2022-12-29T04:39:41.698Z,23.6
2022-12-29T04:40:44.304Z,23.5
2022-12-29T04:41:46.559Z,23.4
2022-12-29T04:42:49.170Z,23.3
2022-12-29T04:43:51.105Z,23.5
2022-12-29T04:44:53.320Z,23.2
2022-12-29T04:45:55.219Z,23.5
2022-12-29T04:46:58.032Z,23.5
2022-12-29T04:48:00.549Z,23.4
2022-12-29T04:49:03.087Z,23.4
2022-12-29T04:50:05.306Z,23.4
2022-12-29T04:51:07.863Z,23.3
2022-12-29T04:52:10.367Z,23.4
2022-12-29T04:53:12.964Z,23.4
2022-12-29T04:54:15.617Z,23.4
2022-12-29T04:55:19.095Z,23.4
2022-12-29T04:56:21.549Z,23.2
2022-12-29T04:57:24.072Z,23.4
2022-12-29T04:58:26.573Z,23.3
2022-12-29T04:59:29.078Z,23.4
2022-12-29T05:00:31.590Z,23.3
2022-12-29T05:01:34.850Z,23.4
2022-12-29T05:02:38.433Z,23.2
2022-12-29T05:03:42.402Z,23.5
2022-12-29T05:04:45.257Z,23.3
2022-12-29T05:05:47.525Z,23.3
2022-12-29T05:06:49.822Z,23.3
2022-12-29T05:07:52.054Z,23.5
2022-12-29T05:08:54.617Z,23.3
2022-12-29T05:09:56.889Z,23.4
2022-12-29T05:10:59.417Z,23.3
2022-12-29T05:12:01.796Z,23.3
2022-12-29T05:13:04.287Z,23.3
2022-12-29T05:14:06.783Z,23.3
2022-12-29T05:15:10.114Z,23.3
2022-12-29T05:16:12.779Z,23.4
2022-12-29T05:17:16.090Z,23.4
2022-12-29T05:18:20.130Z,23.4
2022-12-29T05:19:22.698Z,23.4
2022-12-29T05:20:25.340Z,23.3
2022-12-29T05:21:27.323Z,23.4
2022-12-29T05:22:29.551Z,23.2
2022-12-29T05:23:32.061Z,23.2
2022-12-29T05:24:34.752Z,23.4
2022-12-29T05:25:37.016Z,23.3
2022-12-29T05:26:39.574Z,23.4
2022-12-29T05:27:42.163Z,23.3
2022-12-29T05:28:44.675Z,23.3
2022-12-29T05:29:47.388Z,23.2
2022-12-29T05:30:49.942Z,23.3
2022-12-29T05:31:52.559Z,23.2
2022-12-29T05:32:55.189Z,23.2
2022-12-29T05:33:57.701Z,23.3
2022-12-29T05:35:00.227Z,23.3
2022-12-29T05:36:02.534Z,23.3
2022-12-29T05:37:04.769Z,23.3
2022-12-29T05:38:07.013Z,23.2
2022-12-29T05:39:10.118Z,23.2
2022-12-29T05:40:12.628Z,23.1
2022-12-29T05:41:15.978Z,23.4
2022-12-29T05:42:19.332Z,23.1
2022-12-29T05:43:21.906Z,23.2
2022-12-29T05:44:24.422Z,23.2
2022-12-29T05:45:26.958Z,23.1
2022-12-29T05:46:29.301Z,23.2
2022-12-29T05:47:32.180Z,23.2
2022-12-29T05:48:37.986Z,23.2
2022-12-29T05:49:40.589Z,23.2
2022-12-29T05:50:42.523Z,23.1
2022-12-29T05:51:45.226Z,23.3
2022-12-29T05:52:47.740Z,23.2
2022-12-29T05:53:50.276Z,23.2
2022-12-29T05:54:52.555Z,23.3
2022-12-29T05:55:54.808Z,23.2
2022-12-29T05:56:57.067Z,23.2
2022-12-29T05:57:59.620Z,23.2
2022-12-29T05:59:02.251Z,23.4
2022-12-29T06:00:04.778Z,23.2
2022-12-29T06:01:07.658Z,23.2
2022-12-29T06:02:10.048Z,23.1
2022-12-29T06:03:13.896Z,23.1
2022-12-29T06:04:17.216Z,23
2022-12-29T06:05:19.969Z,23.2
2022-12-29T06:06:22.493Z,23.2
2022-12-29T06:07:25.058Z,23.2
2022-12-29T06:08:27.574Z,23.2
2022-12-29T06:09:29.784Z,23.1
2022-12-29T06:10:32.028Z,23.3
2022-12-29T06:11:34.569Z,23.1
2022-12-29T06:12:37.098Z,23.3
2022-12-29T06:13:39.649Z,23.2
2022-12-29T06:14:42.280Z,23.3
2022-12-29T06:15:44.795Z,23.3
2022-12-29T06:16:47.403Z,23.2
2022-12-29T06:17:50.644Z,23.2
2022-12-29T06:18:52.605Z,23.3
2022-12-29T06:19:55.185Z,23.2
2022-12-29T06:20:57.453Z,23.1
2022-12-29T06:21:59.683Z,23.2
2022-12-29T06:23:02.261Z,23.3
2022-12-29T06:24:04.510Z,23.2
2022-12-29T06:25:06.847Z,23.2
2022-12-29T06:26:09.626Z,23.2
2022-12-29T06:27:12.172Z,23.1
2022-12-29T06:28:15.103Z,23.1
2022-12-29T06:29:19.101Z,23.1
2022-12-29T06:30:21.742Z,23.3
2022-12-29T06:31:24.034Z,23.2
2022-12-29T06:32:26.540Z,23.1
2022-12-29T06:33:29.077Z,23.2
2022-12-29T06:34:31.390Z,23.2
2022-12-29T06:35:34.181Z,23.1
2022-12-29T06:36:36.143Z,23.2
2022-12-29T06:37:38.713Z,23.3
2022-12-29T06:38:41.281Z,23.3
2022-12-29T06:39:43.876Z,23.2
2022-12-29T06:40:46.383Z,23.2
2022-12-29T06:41:48.710Z,23.2
2022-12-29T06:42:50.690Z,23.1
2022-12-29T06:43:53.260Z,23.2
2022-12-29T06:44:55.832Z,23.1
2022-12-29T06:45:58.525Z,23.2
2022-12-29T06:47:01.169Z,23.2
2022-12-29T06:48:03.697Z,23.4
2022-12-29T06:49:06.417Z,23.2
2022-12-29T06:50:09.622Z,23.2
2022-12-29T06:51:12.164Z,23.1
2022-12-29T06:52:14.725Z,23.1
2022-12-29T06:53:17.513Z,23.3
2022-12-29T06:54:19.756Z,23.2
2022-12-29T06:55:22.038Z,23.1
2022-12-29T06:56:24.328Z,23.1
2022-12-29T06:57:26.596Z,23.3
2022-12-29T06:58:28.857Z,23.2
2022-12-29T06:59:31.139Z,23.2
2022-12-29T07:00:33.704Z,23.1
2022-12-29T07:01:36.462Z,23.2
2022-12-29T07:02:39.905Z,23.2
2022-12-29T07:03:43.172Z,23.3
2022-12-29T07:04:45.419Z,23.4
2022-12-29T07:05:47.965Z,23.2
2022-12-29T07:06:50.534Z,23.2
2022-12-29T07:07:53.079Z,23.2
2022-12-29T07:08:55.417Z,23.2
2022-12-29T07:09:57.947Z,23.2
2022-12-29T07:11:00.251Z,23.2
2022-12-29T07:12:02.762Z,23
2022-12-29T07:13:05.337Z,23.2
2022-12-29T07:14:08.517Z,23.1
2022-12-29T07:15:10.832Z,23.3
2022-12-29T07:16:13.337Z,23.2
2022-12-29T07:17:16.247Z,23.1
2022-12-29T07:18:19.028Z,23.1
2022-12-29T07:19:21.296Z,23.1
2022-12-29T07:20:26.673Z,23.2
2022-12-29T07:21:28.590Z,23.1
2022-12-29T07:22:30.812Z,23.1
2022-12-29T07:23:33.359Z,23.2
2022-12-29T07:24:35.930Z,23.3
2022-12-29T07:25:38.475Z,23.1
2022-12-29T07:26:40.981Z,23.2
2022-12-29T07:27:43.383Z,23.1
2022-12-29T07:28:45.921Z,23
2022-12-29T07:29:48.149Z,23
2022-12-29T07:30:50.423Z,23.1
2022-12-29T07:31:53.068Z,23.1
2022-12-29T07:32:55.782Z,23
2022-12-29T07:33:58.058Z,23.1
2022-12-29T07:35:00.287Z,23.2
2022-12-29T07:36:02.849Z,23.2
2022-12-29T07:37:05.370Z,23.3
2022-12-29T07:38:07.728Z,23
2022-12-29T07:39:10.357Z,23
2022-12-29T07:40:12.883Z,23.3
2022-12-29T07:41:15.936Z,23.2
2022-12-29T07:42:19.475Z,23.1
2022-12-29T07:43:22.002Z,23
2022-12-29T07:44:24.248Z,23.1
2022-12-29T07:45:26.209Z,23
2022-12-29T07:46:53.656Z,23
2022-12-29T07:47:33.420Z,23.1
2022-12-29T07:48:36.701Z,23
2022-12-29T07:49:38.704Z,23
2022-12-29T07:50:41.248Z,23
2022-12-29T07:51:43.226Z,23.2
2022-12-29T07:52:45.753Z,23.1
2022-12-29T07:53:48.304Z,23
2022-12-29T07:54:50.822Z,23.1
2022-12-29T07:55:53.035Z,23.2
2022-12-29T07:56:55.557Z,23.1
2022-12-29T07:57:58.122Z,23.1
2022-12-29T07:59:00.441Z,23
2022-12-29T08:00:03.128Z,23
2022-12-29T08:01:05.385Z,23.2
2022-12-29T08:02:08.298Z,23
2022-12-29T08:03:11.526Z,23
2022-12-29T08:04:13.897Z,23.2
2022-12-29T08:05:16.729Z,23.1
2022-12-29T08:06:18.995Z,23.1
2022-12-29T08:07:21.668Z,23
2022-12-29T08:08:24.176Z,23
2022-12-29T08:09:26.698Z,23.1
2022-12-29T08:10:29.259Z,23.1
2022-12-29T08:11:31.525Z,23.2
2022-12-29T08:12:34.412Z,23.1
2022-12-29T08:13:37.061Z,23.1
2022-12-29T08:14:39.273Z,23.2
2022-12-29T08:15:41.939Z,23.2
2022-12-29T08:16:44.769Z,23
2022-12-29T08:17:47.047Z,23
2022-12-29T08:18:49.546Z,23.1
2022-12-29T08:19:51.906Z,23.2
2022-12-29T08:20:55.777Z,23
2022-12-29T08:21:58.309Z,23.2
2022-12-29T08:23:00.833Z,23
2022-12-29T08:24:03.338Z,23
2022-12-29T08:25:05.563Z,23.1
2022-12-29T08:26:07.004Z,23.1
2022-12-29T08:27:16.047Z,23
2022-12-29T08:28:13.994Z,23
2022-12-29T08:29:15.972Z,23
2022-12-29T08:30:18.534Z,23.1
2022-12-29T08:31:21.208Z,23.1
2022-12-29T08:32:23.770Z,23.1
2022-12-29T08:33:26.239Z,23.2
2022-12-29T08:34:28.748Z,23.1
2022-12-29T08:35:31.361Z,23.1
2022-12-29T08:36:34.575Z,23.1
2022-12-29T08:37:37.177Z,23.1
2022-12-29T08:38:39.396Z,23
2022-12-29T08:39:41.935Z,23.1
2022-12-29T08:40:44.461Z,23.1
2022-12-29T08:41:46.997Z,23.1
2022-12-29T08:42:49.801Z,23.1
2022-12-29T08:43:52.333Z,23.1
2022-12-29T08:44:54.566Z,23.1
2022-12-29T08:45:56.835Z,23
2022-12-29T08:46:59.525Z,23.1
2022-12-29T08:48:01.785Z,23
2022-12-29T08:49:04.367Z,23.1
2022-12-29T08:50:06.904Z,23.1
2022-12-29T08:51:09.632Z,23.1
2022-12-29T08:52:12.253Z,23.1
2022-12-29T08:53:14.950Z,23.1
2022-12-29T08:54:16.953Z,23
2022-12-29T08:55:19.222Z,23.1
2022-12-29T08:56:21.485Z,23.1
2022-12-29T08:57:24.529Z,23
2022-12-29T08:58:26.468Z,23.1
2022-12-29T08:59:28.725Z,23.1
2022-12-29T09:00:31.315Z,23
2022-12-29T09:01:33.902Z,23.2
2022-12-29T09:02:37.432Z,23.2
2022-12-29T09:04:47.296Z,23.3
2022-12-29T09:05:50.604Z,23.1
2022-12-29T09:06:53.841Z,23.2
2022-12-29T09:07:57.039Z,23
2022-12-29T09:08:59.197Z,23.2
2022-12-29T09:10:01.718Z,23.1
2022-12-29T09:11:03.934Z,23.2
2022-12-29T09:12:06.697Z,23.1
2022-12-29T09:13:09.204Z,23.3
2022-12-29T09:14:11.463Z,23.1
2022-12-29T09:15:14.668Z,23.1
2022-12-29T09:16:17.280Z,23
2022-12-29T09:17:20.154Z,23.1
2022-12-29T09:18:22.111Z,23.1
2022-12-29T09:19:24.915Z,23
2022-12-29T09:20:27.458Z,23
2022-12-29T09:21:29.978Z,23
2022-12-29T09:22:33.044Z,23.1
2022-12-29T09:23:35.022Z,23
2022-12-29T09:24:37.306Z,22.9
2022-12-29T09:25:39.580Z,23.1
2022-12-29T09:26:46.922Z,23.1
2022-12-29T09:27:47.088Z,23
2022-12-29T09:28:49.326Z,23
2022-12-29T09:29:51.584Z,23.1
2022-12-29T09:30:53.899Z,23.1
2022-12-29T09:31:56.431Z,23
2022-12-29T09:32:59.102Z,23.2
2022-12-29T09:34:01.415Z,22.9
2022-12-29T09:35:03.375Z,23.1
2022-12-29T09:36:05.807Z,23
2022-12-29T09:37:08.093Z,23.1
2022-12-29T09:38:10.752Z,23
2022-12-29T09:39:13.295Z,23
2022-12-29T09:40:15.860Z,23.1
2022-12-29T09:41:17.916Z,23
2022-12-29T09:42:20.178Z,23.1
2022-12-29T09:43:22.443Z,23.1
2022-12-29T09:44:25.831Z,23
2022-12-29T09:45:28.129Z,23
2022-12-29T09:46:30.507Z,23.1
2022-12-29T09:47:33.651Z,23.1
2022-12-29T09:48:36.831Z,23.2
2022-12-29T09:49:39.120Z,23.1
2022-12-29T09:50:41.628Z,22.9
2022-12-29T09:51:44.222Z,23
2022-12-29T09:52:46.436Z,23.1
2022-12-29T09:53:49.086Z,23
2022-12-29T09:54:59.709Z,23
2022-12-29T09:55:56.661Z,23.1
2022-12-29T09:56:58.925Z,23.1
2022-12-29T09:58:01.448Z,23
2022-12-29T09:59:03.700Z,23
2022-12-29T10:00:06.277Z,23
2022-12-29T10:01:08.580Z,23.1
2022-12-29T10:02:11.812Z,23
2022-12-29T10:03:15.764Z,23.2
2022-12-29T10:04:18.692Z,23
2022-12-29T10:05:20.944Z,23.1
2022-12-29T10:06:24.755Z,23.1
2022-12-29T10:07:30.277Z,23.1
2022-12-29T10:08:32.534Z,23.1
2022-12-29T10:09:35.120Z,23
2022-12-29T10:10:37.348Z,23.1
2022-12-29T10:11:39.612Z,23.2
2022-12-29T10:12:41.601Z,23.1
2022-12-29T10:13:44.116Z,23.2
2022-12-29T10:14:46.373Z,23.2
2022-12-29T10:15:48.921Z,23
2022-12-29T10:16:51.587Z,23
2022-12-29T10:17:54.099Z,23.1
2022-12-29T10:18:56.688Z,23.1
2022-12-29T10:19:59.232Z,23.1
2022-12-29T10:21:01.490Z,23
2022-12-29T10:22:04.058Z,23
2022-12-29T10:23:06.333Z,22.9
2022-12-29T10:24:08.892Z,22.9
2022-12-29T10:25:11.611Z,22.9
2022-12-29T10:26:14.038Z,22.9
2022-12-29T10:27:16.252Z,22.8
2022-12-29T10:28:18.945Z,23
2022-12-29T10:29:21.719Z,22.9
2022-12-29T10:30:24.066Z,22.9
2022-12-29T10:31:26.340Z,22.9
2022-12-29T10:32:28.879Z,22.8
2022-12-29T10:33:31.417Z,22.8
2022-12-29T10:34:33.971Z,22.7
2022-12-29T10:35:36.252Z,22.9
2022-12-29T10:36:38.578Z,22.9
2022-12-29T10:37:40.530Z,22.9
2022-12-29T10:38:42.271Z,22.7
2022-12-29T10:39:44.802Z,22.9
2022-12-29T10:40:47.204Z,22.8
2022-12-29T10:41:49.211Z,22.7
2022-12-29T10:42:51.747Z,22.7
2022-12-29T10:43:54.324Z,22.8
2022-12-29T10:44:56.597Z,22.7
2022-12-29T10:45:59.192Z,22.7
2022-12-29T10:47:02.169Z,22.7
2022-12-29T10:48:04.701Z,22.8
2022-12-29T10:49:07.032Z,22.7
2022-12-29T10:50:09.275Z,22.9
2022-12-29T10:51:11.274Z,22.9
2022-12-29T10:52:13.521Z,22.7
2022-12-29T10:53:15.779Z,22.6
2022-12-29T10:54:18.324Z,22.7
2022-12-29T10:55:20.864Z,22.7
2022-12-29T10:56:23.625Z,22.7
2022-12-29T10:57:25.596Z,22.8
2022-12-29T10:58:27.873Z,22.7
2022-12-29T10:59:30.111Z,22.8
2022-12-29T11:00:32.437Z,22.8
2022-12-29T11:01:35.711Z,22.8
2022-12-29T11:02:39.105Z,22.8
2022-12-29T11:03:42.469Z,22.9
2022-12-29T11:04:44.815Z,22.7
2022-12-29T11:05:47.093Z,22.9
2022-12-29T11:06:49.344Z,22.6
2022-12-29T11:07:51.900Z,22.7
2022-12-29T11:08:53.897Z,22.7
2022-12-29T11:09:56.471Z,22.7
2022-12-29T11:10:59.025Z,22.8
2022-12-29T11:12:01.734Z,22.8
2022-12-29T11:13:04.311Z,22.8
2022-12-29T11:14:06.297Z,22.7
2022-12-29T11:15:08.607Z,22.7
2022-12-29T11:16:10.990Z,22.7
2022-12-29T11:17:12.902Z,22.8
2022-12-29T11:18:14.854Z,22.8
2022-12-29T11:19:17.369Z,22.8
2022-12-29T11:20:19.871Z,22.8
2022-12-29T11:21:22.114Z,22.9
2022-12-29T11:22:24.714Z,22.8
2022-12-29T11:23:26.988Z,22.8
2022-12-29T11:24:28.995Z,22.9
2022-12-29T11:25:31.613Z,22.8
2022-12-29T11:26:35.375Z,22.7
2022-12-29T11:27:38.118Z,22.7
2022-12-29T11:28:40.680Z,22.7
2022-12-29T11:29:42.630Z,22.7
2022-12-29T11:30:45.240Z,22.6
2022-12-29T11:31:47.845Z,22.5
2022-12-29T11:32:50.604Z,22.8
2022-12-29T11:33:52.857Z,22.5
2022-12-29T11:34:55.092Z,22.6
2022-12-29T11:35:57.356Z,22.5
2022-12-29T11:36:59.376Z,22.7
2022-12-29T11:38:01.912Z,22.7
2022-12-29T11:39:07.673Z,22.7
2022-12-29T11:40:09.479Z,22.8
2022-12-29T11:41:12.083Z,22.6
2022-12-29T11:42:14.375Z,22.9
2022-12-29T11:43:16.994Z,22.9
2022-12-29T11:44:19.413Z,22.8
2022-12-29T11:45:21.681Z,23
2022-12-29T11:46:23.996Z,22.9
2022-12-29T11:47:26.815Z,22.9
2022-12-29T11:48:29.531Z,22.9
2022-12-29T11:49:32.140Z,22.8
2022-12-29T11:50:34.406Z,22.6
2022-12-29T11:51:36.920Z,22.8
2022-12-29T11:52:39.445Z,22.8
2022-12-29T11:53:41.879Z,22.7
2022-12-29T11:54:44.421Z,22.7
2022-12-29T11:55:46.954Z,22.8
2022-12-29T11:56:48.668Z,22.8
2022-12-29T11:57:50.902Z,22.7
2022-12-29T11:58:53.576Z,22.7
2022-12-29T11:59:56.121Z,22.6
2022-12-29T12:00:58.438Z,22.5
2022-12-29T12:02:00.627Z,22.6
2022-12-29T12:03:04.114Z,22.7
2022-12-29T12:04:07.345Z,22.7
2022-12-29T12:05:10.456Z,22.5
2022-12-29T12:06:12.477Z,22.5
2022-12-29T12:07:14.995Z,22.5
2022-12-29T12:08:20.627Z,22.6
2022-12-29T12:09:22.237Z,22.5
2022-12-29T12:10:24.779Z,22.7
2022-12-29T12:11:27.173Z,22.7
2022-12-29T12:12:29.456Z,22.7
2022-12-29T12:13:32.033Z,22.6
2022-12-29T12:14:34.749Z,22.7
2022-12-29T12:15:41.910Z,22.6
2022-12-29T12:16:42.350Z,22.7
2022-12-29T12:17:45.385Z,22.6
2022-12-29T12:18:47.930Z,22.6
2022-12-29T12:19:50.290Z,22.8
2022-12-29T12:20:52.859Z,22.7
2022-12-29T12:21:55.380Z,22.7
2022-12-29T12:22:57.636Z,22.7
2022-12-29T12:24:00.164Z,22.7
2022-12-29T12:25:02.722Z,22.6
2022-12-29T12:26:04.711Z,22.7
2022-12-29T12:27:07.019Z,22.7
2022-12-29T12:28:09.574Z,22.8
2022-12-29T12:29:11.514Z,22.6
2022-12-29T12:30:14.216Z,22.7
2022-12-29T12:31:16.561Z,22.7
2022-12-29T12:32:19.557Z,22.8
2022-12-29T12:33:21.379Z,22.7
2022-12-29T12:34:23.932Z,22.7
2022-12-29T12:35:26.178Z,22.8
2022-12-29T12:36:29.152Z,22.6
2022-12-29T12:37:30.842Z,22.8
2022-12-29T12:38:33.414Z,22.8
2022-12-29T12:39:35.285Z,22.7
2022-12-29T12:40:37.649Z,22.8
2022-12-29T12:41:40.242Z,22.8
2022-12-29T12:42:42.796Z,22.8
2022-12-29T12:43:45.412Z,22.7
2022-12-29T12:44:47.951Z,22.8
2022-12-29T12:45:50.569Z,22.7
2022-12-29T12:46:53.426Z,22.8
2022-12-29T12:47:56.528Z,22.9
2022-12-29T12:48:59.041Z,22.8
2022-12-29T12:50:01.012Z,22.7
2022-12-29T12:51:03.274Z,22.8
2022-12-29T12:52:05.864Z,22.8
2022-12-29T12:53:08.513Z,22.8
2022-12-29T12:54:10.770Z,22.7
2022-12-29T12:55:13.631Z,22.7
2022-12-29T12:56:15.929Z,22.7
2022-12-29T12:57:18.467Z,22.9
2022-12-29T12:58:20.710Z,22.8
2022-12-29T12:59:23.269Z,22.9
2022-12-29T13:00:25.765Z,22.7
2022-12-29T13:01:28.465Z,22.9
2022-12-29T13:02:31.606Z,22.8
2022-12-29T13:03:35.553Z,22.9
2022-12-29T13:04:38.575Z,22.8
2022-12-29T13:05:40.838Z,22.8
2022-12-29T13:06:43.352Z,22.9
2022-12-29T13:07:45.904Z,22.9
2022-12-29T13:08:48.437Z,22.9
2022-12-29T13:09:50.706Z,22.9
2022-12-29T13:10:53.671Z,22.8
2022-12-29T13:11:56.006Z,23
2022-12-29T13:12:58.540Z,22.8
2022-12-29T13:14:00.974Z,23
2022-12-29T13:15:03.301Z,22.8
2022-12-29T13:16:08.480Z,22.9
2022-12-29T13:17:10.572Z,22.8
2022-12-29T13:18:13.208Z,22.9
2022-12-29T13:19:15.719Z,22.7
2022-12-29T13:20:18.275Z,22.9
2022-12-29T13:21:20.611Z,22.9
2022-12-29T13:22:23.175Z,22.8
2022-12-29T13:23:25.387Z,23
2022-12-29T13:24:27.952Z,22.9
2022-12-29T13:25:30.465Z,22.9
2022-12-29T13:26:33.003Z,22.9
2022-12-29T13:27:37.513Z,22.7
2022-12-29T13:28:40.247Z,23.1
2022-12-29T13:29:42.749Z,22.9
2022-12-29T13:30:45.341Z,22.9
2022-12-29T13:31:48.306Z,23.1
2022-12-29T13:32:50.575Z,22.9
2022-12-29T13:33:53.187Z,23
2022-12-29T13:34:55.898Z,22.9
2022-12-29T13:35:58.178Z,23
2022-12-29T13:37:00.435Z,23
2022-12-29T13:38:02.804Z,22.9
2022-12-29T13:39:05.473Z,22.9
2022-12-29T13:40:07.998Z,23
2022-12-29T13:41:10.465Z,22.9
2022-12-29T13:42:12.748Z,22.9
2022-12-29T13:43:15.278Z,22.9
2022-12-29T13:44:17.512Z,23
2022-12-29T13:45:20.055Z,23
2022-12-29T13:46:22.342Z,22.9
2022-12-29T13:47:24.888Z,22.9
2022-12-29T13:48:26.996Z,22.9
2022-12-29T13:49:29.617Z,23
2022-12-29T13:50:32.197Z,23
2022-12-29T13:51:34.710Z,23
2022-12-29T13:52:36.984Z,22.9
2022-12-29T13:53:39.232Z,22.9
2022-12-29T13:54:41.777Z,22.9
2022-12-29T13:55:44.047Z,22.8
2022-12-29T13:56:46.296Z,22.8
2022-12-29T13:57:48.289Z,22.8
2022-12-29T13:58:50.929Z,23.1
2022-12-29T13:59:53.185Z,23